SUR4160 SADF-SAZR
Flight info
| Callsign | SUR4160 |
|---|---|
| Flight time | 2h 19m |
| Altitude | 8000 |
| Route | EZE M424 ASADA W68 IRASU W73 TIMKU |
| Aircraft | C208/L-SDFGIR/L |
Departure
| Time | 2026-05-07 15:22 |
|---|---|
| Airport | San Fernando Airport (SADF) |
Arrival
| Time | 2026-05-07 17:42 |
|---|---|
| Airport | Santa Rosa Airport (SAZR) |
| Time | Latitude | Longitude | Altitude | Speed | Heading |
|---|---|---|---|---|---|
| 2026-05-07 15:06 | -34.45032 | -58.58110 | 11 ft | 0 kts | 331° |
| 2026-05-07 15:17 | -34.45031 | -58.58111 | 11 ft | 0 kts | 331° |
| 2026-05-07 15:18 | -34.45024 | -58.58116 | 11 ft | 0 kts | 313° |
| 2026-05-07 15:18 | -34.45019 | -58.58126 | 11 ft | 0 kts | 276° |
| 2026-05-07 15:18 | -34.45022 | -58.58141 | 11 ft | 3 kts | 242° |
| 2026-05-07 15:18 | -34.45036 | -58.58165 | 11 ft | 0 kts | 214° |
| 2026-05-07 15:19 | -34.45040 | -58.58168 | 11 ft | 0 kts | 229° |
| 2026-05-07 15:19 | -34.45041 | -58.58172 | 11 ft | 0 kts | 244° |
| 2026-05-07 15:19 | -34.45035 | -58.58178 | 11 ft | 5 kts | 321° |
| 2026-05-07 15:19 | -34.44996 | -58.58207 | 11 ft | 8 kts | 330° |
| 2026-05-07 15:20 | -34.44939 | -58.58247 | 11 ft | 8 kts | 328° |
| 2026-05-07 15:20 | -34.44907 | -58.58270 | 11 ft | 4 kts | 328° |
| 2026-05-07 15:20 | -34.44883 | -58.58291 | 11 ft | 4 kts | 321° |
| 2026-05-07 15:20 | -34.44859 | -58.58316 | 11 ft | 4 kts | 316° |
| 2026-05-07 15:21 | -34.44845 | -58.58349 | 11 ft | 3 kts | 271° |
| 2026-05-07 15:21 | -34.44858 | -58.58386 | 11 ft | 3 kts | 216° |
| 2026-05-07 15:21 | -34.44873 | -58.58403 | 11 ft | 6 kts | 224° |
| 2026-05-07 15:21 | -34.44922 | -58.58460 | 11 ft | 19 kts | 224° |
| 2026-05-07 15:22 | -34.45214 | -58.58801 | 11 ft | 93 kts | 224° |
| 2026-05-07 15:22 | -34.45792 | -58.59410 | 209 ft | 122 kts | 214° |
| 2026-05-07 15:22 | -34.46617 | -58.59777 | 595 ft | 132 kts | 187° |
| 2026-05-07 15:22 | -34.47538 | -58.59599 | 1064 ft | 137 kts | 164° |
| 2026-05-07 15:23 | -34.48412 | -58.59177 | 1473 ft | 139 kts | 165° |
| 2026-05-07 15:23 | -34.49320 | -58.58717 | 1858 ft | 142 kts | 161° |
| 2026-05-07 15:23 | -34.50238 | -58.58313 | 2246 ft | 141 kts | 172° |
| 2026-05-07 15:23 | -34.51285 | -58.57958 | 2159 ft | 168 kts | 171° |
| 2026-05-07 15:24 | -34.52425 | -58.57608 | 2261 ft | 166 kts | 173° |
| 2026-05-07 15:24 | -34.53518 | -58.57283 | 2444 ft | 157 kts | 172° |
| 2026-05-07 15:24 | -34.54560 | -58.56974 | 2690 ft | 149 kts | 173° |
| 2026-05-07 15:24 | -34.55536 | -58.56856 | 2925 ft | 138 kts | 197° |
| 2026-05-07 15:25 | -34.56447 | -58.57146 | 3170 ft | 133 kts | 198° |
| 2026-05-07 15:25 | -34.57339 | -58.57436 | 3417 ft | 132 kts | 192° |
| 2026-05-07 15:25 | -34.58257 | -58.57360 | 3672 ft | 133 kts | 179° |
| 2026-05-07 15:25 | -34.59170 | -58.57200 | 3918 ft | 133 kts | 177° |
| 2026-05-07 15:26 | -34.60088 | -58.57012 | 4172 ft | 131 kts | 177° |
| 2026-05-07 15:26 | -34.60983 | -58.56842 | 4411 ft | 132 kts | 178° |
| 2026-05-07 15:26 | -34.61914 | -58.56678 | 4671 ft | 137 kts | 179° |
| 2026-05-07 15:26 | -34.62880 | -58.56527 | 4929 ft | 141 kts | 179° |
| 2026-05-07 15:27 | -34.63859 | -58.56375 | 5176 ft | 144 kts | 179° |
| 2026-05-07 15:27 | -34.64867 | -58.56220 | 5430 ft | 146 kts | 178° |
| 2026-05-07 15:27 | -34.65881 | -58.56068 | 5684 ft | 147 kts | 180° |
| 2026-05-07 15:27 | -34.66892 | -58.55913 | 5935 ft | 148 kts | 180° |
| 2026-05-07 15:28 | -34.67927 | -58.55754 | 6188 ft | 149 kts | 179° |
| 2026-05-07 15:28 | -34.68956 | -58.55596 | 6436 ft | 150 kts | 178° |
| 2026-05-07 15:28 | -34.70002 | -58.55438 | 6688 ft | 151 kts | 179° |
| 2026-05-07 15:28 | -34.71039 | -58.55279 | 6937 ft | 151 kts | 179° |
| 2026-05-07 15:29 | -34.72088 | -58.55118 | 7188 ft | 151 kts | 178° |
| 2026-05-07 15:29 | -34.73126 | -58.54959 | 7436 ft | 151 kts | 179° |
| 2026-05-07 15:29 | -34.74169 | -58.54800 | 7634 ft | 154 kts | 179° |
| 2026-05-07 15:29 | -34.75283 | -58.54638 | 7662 ft | 166 kts | 178° |
| 2026-05-07 15:30 | -34.76455 | -58.54462 | 7662 ft | 172 kts | 178° |
| 2026-05-07 15:30 | -34.77657 | -58.54285 | 7660 ft | 174 kts | 178° |
| 2026-05-07 15:30 | -34.78885 | -58.54096 | 7657 ft | 176 kts | 177° |
| 2026-05-07 15:30 | -34.80094 | -58.53912 | 7658 ft | 175 kts | 179° |
| 2026-05-07 15:31 | -34.81263 | -58.54111 | 7661 ft | 167 kts | 207° |
| 2026-05-07 15:31 | -34.82218 | -58.54863 | 7659 ft | 164 kts | 227° |
| 2026-05-07 15:31 | -34.82831 | -58.56007 | 7659 ft | 161 kts | 249° |
| 2026-05-07 15:31 | -34.83152 | -58.57303 | 7664 ft | 160 kts | 255° |
| 2026-05-07 15:32 | -34.83408 | -58.58600 | 7663 ft | 158 kts | 258° |
| 2026-05-07 15:32 | -34.83639 | -58.59907 | 7663 ft | 158 kts | 258° |
| 2026-05-07 15:32 | -34.83872 | -58.61214 | 7658 ft | 158 kts | 258° |
| 2026-05-07 15:32 | -34.84107 | -58.62522 | 7662 ft | 157 kts | 258° |
| 2026-05-07 15:33 | -34.84346 | -58.63823 | 7662 ft | 157 kts | 258° |
| 2026-05-07 15:33 | -34.84586 | -58.65109 | 7663 ft | 157 kts | 257° |
| 2026-05-07 15:33 | -34.84830 | -58.66406 | 7663 ft | 157 kts | 257° |
| 2026-05-07 15:33 | -34.85074 | -58.67712 | 7665 ft | 157 kts | 257° |
| 2026-05-07 15:34 | -34.85329 | -58.69005 | 7662 ft | 157 kts | 258° |
| 2026-05-07 15:34 | -34.85571 | -58.70305 | 7660 ft | 157 kts | 258° |
| 2026-05-07 15:34 | -34.85814 | -58.71598 | 7660 ft | 157 kts | 257° |
| 2026-05-07 15:34 | -34.86056 | -58.72900 | 7662 ft | 157 kts | 258° |
| 2026-05-07 15:35 | -34.86293 | -58.74193 | 7662 ft | 157 kts | 258° |
| 2026-05-07 15:35 | -34.86536 | -58.75495 | 7663 ft | 157 kts | 258° |
| 2026-05-07 15:35 | -34.86780 | -58.76796 | 7664 ft | 157 kts | 258° |
| 2026-05-07 15:35 | -34.87027 | -58.78097 | 7663 ft | 157 kts | 257° |
| 2026-05-07 15:36 | -34.87270 | -58.79385 | 7661 ft | 157 kts | 258° |
| 2026-05-07 15:36 | -34.87516 | -58.80680 | 7663 ft | 156 kts | 258° |
| 2026-05-07 15:36 | -34.87756 | -58.81971 | 7660 ft | 156 kts | 258° |
| 2026-05-07 15:36 | -34.87998 | -58.83258 | 7666 ft | 157 kts | 258° |
| 2026-05-07 15:37 | -34.88241 | -58.84547 | 7666 ft | 157 kts | 258° |
| 2026-05-07 15:37 | -34.88485 | -58.85859 | 7664 ft | 157 kts | 258° |
| 2026-05-07 15:37 | -34.88725 | -58.87146 | 7658 ft | 158 kts | 258° |
| 2026-05-07 15:37 | -34.88971 | -58.88457 | 7654 ft | 158 kts | 259° |
| 2026-05-07 15:38 | -34.89213 | -58.89759 | 7648 ft | 158 kts | 259° |
| 2026-05-07 15:38 | -34.89457 | -58.91069 | 7651 ft | 157 kts | 259° |
| 2026-05-07 15:38 | -34.89695 | -58.92366 | 7652 ft | 157 kts | 258° |
| 2026-05-07 15:38 | -34.89934 | -58.93666 | 7657 ft | 156 kts | 259° |
| 2026-05-07 15:39 | -34.90173 | -58.94957 | 7654 ft | 157 kts | 259° |
| 2026-05-07 15:39 | -34.90414 | -58.96257 | 7662 ft | 157 kts | 258° |
| 2026-05-07 15:39 | -34.90653 | -58.97536 | 7665 ft | 156 kts | 259° |
| 2026-05-07 15:39 | -34.90889 | -58.98817 | 7663 ft | 155 kts | 258° |
| 2026-05-07 15:40 | -34.91129 | -59.00111 | 7668 ft | 155 kts | 258° |
| 2026-05-07 15:40 | -34.91372 | -59.01400 | 7674 ft | 156 kts | 259° |
| 2026-05-07 15:40 | -34.91610 | -59.02687 | 7673 ft | 156 kts | 259° |
| 2026-05-07 15:40 | -34.91846 | -59.03965 | 7673 ft | 156 kts | 259° |
| 2026-05-07 15:41 | -34.92084 | -59.05255 | 7675 ft | 156 kts | 259° |
| 2026-05-07 15:41 | -34.92324 | -59.06553 | 7671 ft | 156 kts | 259° |
| 2026-05-07 15:41 | -34.92563 | -59.07838 | 7674 ft | 156 kts | 259° |
| 2026-05-07 15:41 | -34.92802 | -59.09128 | 7677 ft | 157 kts | 259° |
| 2026-05-07 15:42 | -34.93043 | -59.10435 | 7674 ft | 157 kts | 258° |
| 2026-05-07 15:42 | -34.93286 | -59.11734 | 7673 ft | 157 kts | 259° |
| 2026-05-07 15:42 | -34.93520 | -59.13028 | 7676 ft | 156 kts | 258° |
| 2026-05-07 15:42 | -34.93759 | -59.14313 | 7673 ft | 156 kts | 258° |
| 2026-05-07 15:43 | -34.93996 | -59.15596 | 7671 ft | 155 kts | 258° |
| 2026-05-07 15:43 | -34.94231 | -59.16875 | 7676 ft | 155 kts | 259° |
| 2026-05-07 15:43 | -34.94471 | -59.18171 | 7675 ft | 155 kts | 259° |
| 2026-05-07 15:43 | -34.94708 | -59.19453 | 7672 ft | 156 kts | 259° |
| 2026-05-07 15:44 | -34.94943 | -59.20733 | 7674 ft | 155 kts | 259° |
| 2026-05-07 15:44 | -34.95179 | -59.22026 | 7676 ft | 156 kts | 259° |
| 2026-05-07 15:44 | -34.95414 | -59.23316 | 7673 ft | 156 kts | 259° |
| 2026-05-07 15:44 | -34.95654 | -59.24606 | 7675 ft | 156 kts | 259° |
| 2026-05-07 15:45 | -34.95889 | -59.25889 | 7673 ft | 156 kts | 259° |
| 2026-05-07 15:45 | -34.96128 | -59.27186 | 7665 ft | 156 kts | 259° |
| 2026-05-07 15:45 | -34.96362 | -59.28470 | 7666 ft | 157 kts | 259° |
| 2026-05-07 15:45 | -34.96601 | -59.29769 | 7658 ft | 157 kts | 259° |
| 2026-05-07 15:46 | -34.97075 | -59.32370 | 7662 ft | 157 kts | 258° |
| 2026-05-07 15:46 | -34.97311 | -59.33669 | 7665 ft | 156 kts | 259° |
| 2026-05-07 15:46 | -34.97549 | -59.34962 | 7668 ft | 156 kts | 258° |
| 2026-05-07 15:47 | -34.97784 | -59.36252 | 7676 ft | 155 kts | 258° |
| 2026-05-07 15:47 | -34.98016 | -59.37535 | 7672 ft | 156 kts | 259° |
| 2026-05-07 15:47 | -34.98253 | -59.38832 | 7675 ft | 156 kts | 258° |
| 2026-05-07 15:47 | -34.98487 | -59.40117 | 7674 ft | 156 kts | 259° |
| 2026-05-07 15:48 | -34.98725 | -59.41413 | 7678 ft | 156 kts | 259° |
| 2026-05-07 15:48 | -34.98960 | -59.42710 | 7681 ft | 156 kts | 259° |
| 2026-05-07 15:48 | -34.99194 | -59.43990 | 7685 ft | 156 kts | 258° |
| 2026-05-07 15:48 | -34.99429 | -59.45288 | 7687 ft | 156 kts | 258° |
| 2026-05-07 15:49 | -34.99662 | -59.46571 | 7689 ft | 156 kts | 258° |
| 2026-05-07 15:49 | -34.99896 | -59.47861 | 7689 ft | 156 kts | 258° |
| 2026-05-07 15:49 | -35.00129 | -59.49149 | 7691 ft | 156 kts | 258° |
| 2026-05-07 15:49 | -35.00365 | -59.50446 | 7692 ft | 157 kts | 258° |
| 2026-05-07 15:50 | -35.00599 | -59.51743 | 7690 ft | 157 kts | 258° |
| 2026-05-07 15:50 | -35.00834 | -59.53043 | 7687 ft | 157 kts | 258° |
| 2026-05-07 15:50 | -35.01070 | -59.54356 | 7683 ft | 157 kts | 259° |
| 2026-05-07 15:50 | -35.01303 | -59.55644 | 7679 ft | 157 kts | 258° |
| 2026-05-07 15:51 | -35.01540 | -59.56947 | 7675 ft | 157 kts | 259° |
| 2026-05-07 15:51 | -35.01773 | -59.58241 | 7676 ft | 157 kts | 259° |
| 2026-05-07 15:51 | -35.02011 | -59.59552 | 7679 ft | 156 kts | 259° |
| 2026-05-07 15:51 | -35.02242 | -59.60838 | 7676 ft | 156 kts | 259° |
| 2026-05-07 15:52 | -35.02475 | -59.62130 | 7681 ft | 156 kts | 258° |
| 2026-05-07 15:52 | -35.02710 | -59.63436 | 7679 ft | 156 kts | 258° |
| 2026-05-07 15:52 | -35.02943 | -59.64726 | 7679 ft | 156 kts | 258° |
| 2026-05-07 15:52 | -35.03172 | -59.66007 | 7683 ft | 156 kts | 259° |
| 2026-05-07 15:53 | -35.03406 | -59.67310 | 7684 ft | 157 kts | 258° |
| 2026-05-07 15:53 | -35.03641 | -59.68621 | 7677 ft | 157 kts | 259° |
| 2026-05-07 15:53 | -35.03872 | -59.69915 | 7677 ft | 157 kts | 259° |
| 2026-05-07 15:53 | -35.04108 | -59.71220 | 7680 ft | 157 kts | 259° |
| 2026-05-07 15:54 | -35.04341 | -59.72526 | 7682 ft | 157 kts | 259° |
| 2026-05-07 15:54 | -35.04573 | -59.73822 | 7685 ft | 157 kts | 259° |
| 2026-05-07 15:54 | -35.04808 | -59.75129 | 7686 ft | 157 kts | 259° |
| 2026-05-07 15:54 | -35.05040 | -59.76425 | 7685 ft | 157 kts | 259° |
| 2026-05-07 15:55 | -35.05272 | -59.77725 | 7684 ft | 157 kts | 259° |
| 2026-05-07 15:55 | -35.05505 | -59.79031 | 7686 ft | 157 kts | 259° |
| 2026-05-07 15:55 | -35.05740 | -59.80341 | 7684 ft | 157 kts | 259° |
| 2026-05-07 15:55 | -35.05970 | -59.81639 | 7685 ft | 157 kts | 259° |
| 2026-05-07 15:56 | -35.06202 | -59.82933 | 7682 ft | 157 kts | 259° |
| 2026-05-07 15:56 | -35.06434 | -59.84239 | 7687 ft | 157 kts | 259° |
| 2026-05-07 15:56 | -35.06667 | -59.85548 | 7694 ft | 157 kts | 259° |
| 2026-05-07 15:56 | -35.06897 | -59.86841 | 7695 ft | 157 kts | 259° |
| 2026-05-07 15:57 | -35.07130 | -59.88152 | 7697 ft | 157 kts | 258° |
| 2026-05-07 15:57 | -35.07361 | -59.89445 | 7700 ft | 157 kts | 259° |
| 2026-05-07 15:57 | -35.07593 | -59.90758 | 7704 ft | 157 kts | 259° |
| 2026-05-07 15:57 | -35.07827 | -59.92073 | 7702 ft | 158 kts | 259° |
| 2026-05-07 15:58 | -35.08057 | -59.93378 | 7701 ft | 157 kts | 259° |
| 2026-05-07 15:58 | -35.08287 | -59.94677 | 7703 ft | 157 kts | 259° |
| 2026-05-07 15:58 | -35.08517 | -59.95972 | 7702 ft | 157 kts | 259° |
| 2026-05-07 15:58 | -35.08749 | -59.97286 | 7710 ft | 157 kts | 259° |
| 2026-05-07 15:59 | -35.08979 | -59.98576 | 7708 ft | 157 kts | 258° |
| 2026-05-07 15:59 | -35.09210 | -59.99886 | 7709 ft | 157 kts | 258° |
| 2026-05-07 15:59 | -35.09436 | -60.01168 | 7709 ft | 156 kts | 258° |
| 2026-05-07 15:59 | -35.09666 | -60.02473 | 7705 ft | 157 kts | 258° |
| 2026-05-07 16:00 | -35.09892 | -60.03766 | 7706 ft | 156 kts | 258° |
| 2026-05-07 16:00 | -35.10124 | -60.05069 | 7701 ft | 157 kts | 258° |
| 2026-05-07 16:00 | -35.10354 | -60.06378 | 7695 ft | 157 kts | 258° |
| 2026-05-07 16:00 | -35.10585 | -60.07687 | 7692 ft | 158 kts | 258° |
| 2026-05-07 16:01 | -35.10814 | -60.08991 | 7688 ft | 158 kts | 259° |
| 2026-05-07 16:01 | -35.11046 | -60.10309 | 7685 ft | 158 kts | 259° |
| 2026-05-07 16:01 | -35.11275 | -60.11614 | 7688 ft | 157 kts | 258° |
| 2026-05-07 16:01 | -35.11505 | -60.12925 | 7683 ft | 157 kts | 259° |
| 2026-05-07 16:02 | -35.11734 | -60.14230 | 7686 ft | 157 kts | 258° |
| 2026-05-07 16:02 | -35.11962 | -60.15532 | 7690 ft | 157 kts | 258° |
| 2026-05-07 16:02 | -35.12189 | -60.16815 | 7690 ft | 156 kts | 258° |
| 2026-05-07 16:02 | -35.12416 | -60.18119 | 7691 ft | 156 kts | 258° |
| 2026-05-07 16:03 | -35.12640 | -60.19407 | 7691 ft | 156 kts | 258° |
| 2026-05-07 16:03 | -35.12868 | -60.20701 | 7691 ft | 155 kts | 259° |
| 2026-05-07 16:03 | -35.13091 | -60.21990 | 7687 ft | 156 kts | 258° |
| 2026-05-07 16:03 | -35.13319 | -60.23288 | 7688 ft | 156 kts | 258° |
| 2026-05-07 16:04 | -35.13546 | -60.24588 | 7688 ft | 156 kts | 258° |
| 2026-05-07 16:04 | -35.13771 | -60.25873 | 7690 ft | 156 kts | 258° |
| 2026-05-07 16:04 | -35.13996 | -60.27166 | 7692 ft | 155 kts | 258° |
| 2026-05-07 16:04 | -35.14221 | -60.28461 | 7695 ft | 156 kts | 258° |
| 2026-05-07 16:05 | -35.14447 | -60.29761 | 7696 ft | 156 kts | 258° |
| 2026-05-07 16:05 | -35.14669 | -60.31038 | 7701 ft | 155 kts | 258° |
| 2026-05-07 16:05 | -35.14893 | -60.32326 | 7710 ft | 154 kts | 258° |
| 2026-05-07 16:05 | -35.15119 | -60.33620 | 7713 ft | 154 kts | 258° |
| 2026-05-07 16:06 | -35.15339 | -60.34887 | 7715 ft | 154 kts | 258° |
| 2026-05-07 16:06 | -35.15563 | -60.36177 | 7714 ft | 154 kts | 258° |
| 2026-05-07 16:06 | -35.15783 | -60.37446 | 7714 ft | 154 kts | 258° |
| 2026-05-07 16:06 | -35.16007 | -60.38741 | 7715 ft | 154 kts | 258° |
| 2026-05-07 16:07 | -35.16230 | -60.40027 | 7711 ft | 154 kts | 258° |
| 2026-05-07 16:07 | -35.16450 | -60.41305 | 7712 ft | 155 kts | 258° |
| 2026-05-07 16:07 | -35.16673 | -60.42596 | 7711 ft | 154 kts | 258° |
| 2026-05-07 16:07 | -35.16895 | -60.43879 | 7710 ft | 154 kts | 258° |
| 2026-05-07 16:08 | -35.17116 | -60.45156 | 7708 ft | 155 kts | 258° |
| 2026-05-07 16:08 | -35.17338 | -60.46435 | 7711 ft | 154 kts | 258° |
| 2026-05-07 16:08 | -35.17562 | -60.47729 | 7710 ft | 154 kts | 258° |
| 2026-05-07 16:08 | -35.17785 | -60.49021 | 7709 ft | 155 kts | 258° |
| 2026-05-07 16:09 | -35.18003 | -60.50298 | 7712 ft | 155 kts | 258° |
| 2026-05-07 16:09 | -35.18227 | -60.51588 | 7712 ft | 154 kts | 258° |
| 2026-05-07 16:09 | -35.18447 | -60.52871 | 7714 ft | 154 kts | 258° |
| 2026-05-07 16:09 | -35.18668 | -60.54145 | 7715 ft | 153 kts | 258° |
| 2026-05-07 16:10 | -35.18896 | -60.55419 | 7715 ft | 153 kts | 258° |
| 2026-05-07 16:10 | -35.19112 | -60.56683 | 7713 ft | 153 kts | 258° |
| 2026-05-07 16:10 | -35.19329 | -60.57970 | 7710 ft | 154 kts | 258° |
| 2026-05-07 16:10 | -35.19539 | -60.59252 | 7708 ft | 154 kts | 258° |
| 2026-05-07 16:11 | -35.19756 | -60.60524 | 7708 ft | 154 kts | 258° |
| 2026-05-07 16:11 | -35.19975 | -60.61803 | 7707 ft | 154 kts | 257° |
| 2026-05-07 16:11 | -35.20197 | -60.63087 | 7709 ft | 153 kts | 258° |
| 2026-05-07 16:11 | -35.20415 | -60.64353 | 7708 ft | 153 kts | 258° |
| 2026-05-07 16:12 | -35.20636 | -60.65645 | 7712 ft | 153 kts | 258° |
| 2026-05-07 16:12 | -35.20855 | -60.66918 | 7713 ft | 154 kts | 258° |
| 2026-05-07 16:12 | -35.21075 | -60.68204 | 7715 ft | 154 kts | 258° |
| 2026-05-07 16:12 | -35.21293 | -60.69482 | 7717 ft | 154 kts | 258° |
| 2026-05-07 16:13 | -35.21512 | -60.70766 | 7717 ft | 154 kts | 258° |
| 2026-05-07 16:13 | -35.21728 | -60.72033 | 7719 ft | 154 kts | 258° |
| 2026-05-07 16:13 | -35.21946 | -60.73314 | 7719 ft | 154 kts | 258° |
| 2026-05-07 16:13 | -35.22165 | -60.74597 | 7720 ft | 153 kts | 258° |
| 2026-05-07 16:14 | -35.22382 | -60.75873 | 7721 ft | 153 kts | 258° |
| 2026-05-07 16:14 | -35.22597 | -60.77143 | 7720 ft | 153 kts | 258° |
| 2026-05-07 16:14 | -35.22816 | -60.78430 | 7720 ft | 153 kts | 258° |
| 2026-05-07 16:14 | -35.23033 | -60.79707 | 7720 ft | 154 kts | 258° |
| 2026-05-07 16:15 | -35.23251 | -60.80990 | 7724 ft | 154 kts | 258° |
| 2026-05-07 16:15 | -35.23466 | -60.82262 | 7728 ft | 154 kts | 258° |
| 2026-05-07 16:15 | -35.23685 | -60.83552 | 7731 ft | 153 kts | 258° |
| 2026-05-07 16:15 | -35.23900 | -60.84822 | 7733 ft | 153 kts | 257° |
| 2026-05-07 16:16 | -35.24114 | -60.86092 | 7734 ft | 153 kts | 257° |
| 2026-05-07 16:16 | -35.24331 | -60.87373 | 7731 ft | 153 kts | 257° |
| 2026-05-07 16:16 | -35.24548 | -60.88655 | 7731 ft | 153 kts | 257° |
| 2026-05-07 16:16 | -35.24762 | -60.89922 | 7729 ft | 153 kts | 257° |
| 2026-05-07 16:17 | -35.24974 | -60.91186 | 7728 ft | 153 kts | 257° |
| 2026-05-07 16:17 | -35.25191 | -60.92468 | 7723 ft | 153 kts | 258° |
| 2026-05-07 16:17 | -35.25407 | -60.93748 | 7723 ft | 153 kts | 258° |
| 2026-05-07 16:17 | -35.25618 | -60.95006 | 7724 ft | 153 kts | 258° |
| 2026-05-07 16:18 | -35.25834 | -60.96283 | 7723 ft | 153 kts | 258° |
| 2026-05-07 16:18 | -35.26050 | -60.97571 | 7722 ft | 153 kts | 258° |
| 2026-05-07 16:18 | -35.26263 | -60.98840 | 7722 ft | 153 kts | 258° |
| 2026-05-07 16:18 | -35.26478 | -61.00118 | 7719 ft | 154 kts | 258° |
| 2026-05-07 16:19 | -35.26694 | -61.01406 | 7722 ft | 153 kts | 258° |
| 2026-05-07 16:19 | -35.26905 | -61.02668 | 7725 ft | 153 kts | 257° |
| 2026-05-07 16:19 | -35.27120 | -61.03949 | 7728 ft | 152 kts | 257° |
| 2026-05-07 16:19 | -35.27333 | -61.05219 | 7730 ft | 152 kts | 257° |
| 2026-05-07 16:20 | -35.27543 | -61.06476 | 7731 ft | 152 kts | 257° |
| 2026-05-07 16:20 | -35.27754 | -61.07738 | 7733 ft | 151 kts | 257° |
| 2026-05-07 16:20 | -35.27964 | -61.08996 | 7732 ft | 151 kts | 257° |
| 2026-05-07 16:20 | -35.28177 | -61.10270 | 7730 ft | 151 kts | 257° |
| 2026-05-07 16:21 | -35.28386 | -61.11518 | 7731 ft | 151 kts | 257° |
| 2026-05-07 16:21 | -35.28598 | -61.12790 | 7728 ft | 152 kts | 257° |
| 2026-05-07 16:21 | -35.28810 | -61.14063 | 7728 ft | 152 kts | 257° |
| 2026-05-07 16:21 | -35.29018 | -61.15316 | 7727 ft | 152 kts | 257° |
| 2026-05-07 16:22 | -35.29230 | -61.16587 | 7729 ft | 152 kts | 257° |
| 2026-05-07 16:22 | -35.29442 | -61.17860 | 7723 ft | 152 kts | 257° |
| 2026-05-07 16:22 | -35.29652 | -61.19130 | 7719 ft | 152 kts | 257° |
| 2026-05-07 16:22 | -35.29861 | -61.20387 | 7711 ft | 152 kts | 257° |
| 2026-05-07 16:23 | -35.30073 | -61.21663 | 7703 ft | 152 kts | 257° |
| 2026-05-07 16:23 | -35.30282 | -61.22924 | 7702 ft | 151 kts | 257° |
| 2026-05-07 16:23 | -35.30491 | -61.24184 | 7703 ft | 151 kts | 257° |
| 2026-05-07 16:23 | -35.30698 | -61.25434 | 7702 ft | 151 kts | 257° |
| 2026-05-07 16:24 | -35.30908 | -61.26700 | 7702 ft | 151 kts | 257° |
| 2026-05-07 16:24 | -35.31115 | -61.27954 | 7702 ft | 150 kts | 257° |
| 2026-05-07 16:24 | -35.31322 | -61.29205 | 7703 ft | 150 kts | 257° |
| 2026-05-07 16:24 | -35.31528 | -61.30451 | 7708 ft | 150 kts | 257° |
| 2026-05-07 16:25 | -35.31734 | -61.31699 | 7713 ft | 149 kts | 257° |
| 2026-05-07 16:25 | -35.31940 | -61.32948 | 7710 ft | 149 kts | 257° |
| 2026-05-07 16:25 | -35.32146 | -61.34198 | 7708 ft | 149 kts | 257° |
| 2026-05-07 16:25 | -35.32350 | -61.35437 | 7708 ft | 149 kts | 257° |
| 2026-05-07 16:26 | -35.32557 | -61.36691 | 7712 ft | 149 kts | 256° |
| 2026-05-07 16:26 | -35.32762 | -61.37936 | 7711 ft | 149 kts | 257° |
| 2026-05-07 16:26 | -35.32965 | -61.39170 | 7711 ft | 149 kts | 256° |
| 2026-05-07 16:26 | -35.33170 | -61.40423 | 7711 ft | 149 kts | 257° |
| 2026-05-07 16:27 | -35.33373 | -61.41658 | 7715 ft | 149 kts | 256° |
| 2026-05-07 16:27 | -35.33577 | -61.42899 | 7715 ft | 149 kts | 256° |
| 2026-05-07 16:27 | -35.33781 | -61.44144 | 7713 ft | 149 kts | 256° |
| 2026-05-07 16:27 | -35.33987 | -61.45404 | 7714 ft | 149 kts | 256° |
| 2026-05-07 16:28 | -35.34188 | -61.46631 | 7715 ft | 149 kts | 256° |
| 2026-05-07 16:28 | -35.34392 | -61.47876 | 7717 ft | 149 kts | 256° |
| 2026-05-07 16:28 | -35.34595 | -61.49118 | 7720 ft | 149 kts | 256° |
| 2026-05-07 16:28 | -35.34799 | -61.50366 | 7721 ft | 148 kts | 256° |
| 2026-05-07 16:29 | -35.35000 | -61.51597 | 7721 ft | 148 kts | 256° |
| 2026-05-07 16:29 | -35.35204 | -61.52845 | 7718 ft | 148 kts | 256° |
| 2026-05-07 16:29 | -35.35405 | -61.54081 | 7716 ft | 148 kts | 256° |
| 2026-05-07 16:29 | -35.35608 | -61.55327 | 7712 ft | 149 kts | 256° |
| 2026-05-07 16:30 | -35.35811 | -61.56567 | 7711 ft | 148 kts | 256° |
| 2026-05-07 16:30 | -35.36012 | -61.57805 | 7716 ft | 148 kts | 256° |
| 2026-05-07 16:30 | -35.36213 | -61.59042 | 7716 ft | 148 kts | 256° |
| 2026-05-07 16:30 | -35.36414 | -61.60281 | 7715 ft | 148 kts | 256° |
| 2026-05-07 16:31 | -35.36614 | -61.61510 | 7719 ft | 148 kts | 256° |
| 2026-05-07 16:31 | -35.36816 | -61.62754 | 7719 ft | 147 kts | 255° |
| 2026-05-07 16:31 | -35.37016 | -61.63988 | 7717 ft | 148 kts | 256° |
| 2026-05-07 16:31 | -35.37214 | -61.65208 | 7716 ft | 148 kts | 256° |
| 2026-05-07 16:32 | -35.37414 | -61.66445 | 7720 ft | 147 kts | 256° |
| 2026-05-07 16:32 | -35.37616 | -61.67691 | 7720 ft | 148 kts | 256° |
| 2026-05-07 16:32 | -35.37816 | -61.68928 | 7723 ft | 148 kts | 256° |
| 2026-05-07 16:32 | -35.38016 | -61.70164 | 7723 ft | 148 kts | 256° |
| 2026-05-07 16:33 | -35.38214 | -61.71390 | 7721 ft | 149 kts | 256° |
| 2026-05-07 16:33 | -35.38415 | -61.72636 | 7717 ft | 149 kts | 256° |
| 2026-05-07 16:33 | -35.38618 | -61.73879 | 7722 ft | 148 kts | 254° |
| 2026-05-07 16:33 | -35.39039 | -61.75022 | 7722 ft | 147 kts | 236° |
| 2026-05-07 16:34 | -35.39572 | -61.76088 | 7722 ft | 147 kts | 241° |
| 2026-05-07 16:34 | -35.40084 | -61.77179 | 7723 ft | 147 kts | 239° |
| 2026-05-07 16:34 | -35.40604 | -61.78263 | 7724 ft | 147 kts | 240° |
| 2026-05-07 16:34 | -35.41126 | -61.79343 | 7723 ft | 147 kts | 239° |
| 2026-05-07 16:35 | -35.41645 | -61.80416 | 7728 ft | 147 kts | 239° |
| 2026-05-07 16:35 | -35.42165 | -61.81484 | 7730 ft | 146 kts | 239° |
| 2026-05-07 16:35 | -35.42688 | -61.82559 | 7730 ft | 146 kts | 239° |
| 2026-05-07 16:35 | -35.43214 | -61.83640 | 7729 ft | 146 kts | 238° |
| 2026-05-07 16:36 | -35.43733 | -61.84706 | 7730 ft | 146 kts | 239° |
| 2026-05-07 16:36 | -35.44256 | -61.85780 | 7731 ft | 146 kts | 238° |
| 2026-05-07 16:36 | -35.44777 | -61.86851 | 7732 ft | 146 kts | 239° |
| 2026-05-07 16:36 | -35.45300 | -61.87925 | 7732 ft | 146 kts | 238° |
| 2026-05-07 16:37 | -35.45819 | -61.88992 | 7732 ft | 146 kts | 239° |
| 2026-05-07 16:37 | -35.46346 | -61.90074 | 7733 ft | 146 kts | 239° |
| 2026-05-07 16:37 | -35.46865 | -61.91143 | 7736 ft | 146 kts | 238° |
| 2026-05-07 16:37 | -35.47383 | -61.92210 | 7736 ft | 146 kts | 238° |
| 2026-05-07 16:38 | -35.47907 | -61.93288 | 7737 ft | 146 kts | 238° |
| 2026-05-07 16:38 | -35.48425 | -61.94355 | 7739 ft | 146 kts | 239° |
| 2026-05-07 16:38 | -35.48945 | -61.95425 | 7739 ft | 145 kts | 238° |
| 2026-05-07 16:38 | -35.49458 | -61.96484 | 7742 ft | 145 kts | 238° |
| 2026-05-07 16:39 | -35.49980 | -61.97559 | 7743 ft | 145 kts | 238° |
| 2026-05-07 16:39 | -35.50494 | -61.98618 | 7738 ft | 146 kts | 238° |
| 2026-05-07 16:39 | -35.51012 | -61.99688 | 7738 ft | 146 kts | 238° |
| 2026-05-07 16:39 | -35.51534 | -62.00763 | 7736 ft | 146 kts | 238° |
| 2026-05-07 16:40 | -35.52049 | -62.01826 | 7738 ft | 145 kts | 238° |
| 2026-05-07 16:40 | -35.52567 | -62.02897 | 7740 ft | 145 kts | 238° |
| 2026-05-07 16:40 | -35.53083 | -62.03962 | 7742 ft | 144 kts | 238° |
| 2026-05-07 16:40 | -35.53597 | -62.05024 | 7743 ft | 144 kts | 238° |
| 2026-05-07 16:41 | -35.54112 | -62.06088 | 7742 ft | 145 kts | 238° |
| 2026-05-07 16:41 | -35.54624 | -62.07145 | 7737 ft | 145 kts | 238° |
| 2026-05-07 16:41 | -35.55139 | -62.08211 | 7734 ft | 145 kts | 238° |
| 2026-05-07 16:41 | -35.55653 | -62.09272 | 7738 ft | 145 kts | 238° |
| 2026-05-07 16:42 | -35.56170 | -62.10341 | 7740 ft | 145 kts | 238° |
| 2026-05-07 16:42 | -35.56681 | -62.11400 | 7737 ft | 145 kts | 238° |
| 2026-05-07 16:42 | -35.57195 | -62.12465 | 7735 ft | 145 kts | 238° |
| 2026-05-07 16:42 | -35.57715 | -62.13541 | 7731 ft | 146 kts | 238° |
| 2026-05-07 16:43 | -35.58228 | -62.14602 | 7730 ft | 145 kts | 238° |
| 2026-05-07 16:43 | -35.58748 | -62.15682 | 7731 ft | 145 kts | 238° |
| 2026-05-07 16:43 | -35.59265 | -62.16752 | 7735 ft | 145 kts | 237° |
| 2026-05-07 16:43 | -35.59772 | -62.17804 | 7741 ft | 145 kts | 237° |
| 2026-05-07 16:44 | -35.60288 | -62.18875 | 7742 ft | 145 kts | 237° |
| 2026-05-07 16:44 | -35.60799 | -62.19935 | 7745 ft | 145 kts | 237° |
| 2026-05-07 16:44 | -35.61318 | -62.21011 | 7743 ft | 145 kts | 237° |
| 2026-05-07 16:44 | -35.61829 | -62.22072 | 7743 ft | 145 kts | 237° |
| 2026-05-07 16:45 | -35.62339 | -62.23133 | 7742 ft | 144 kts | 237° |
| 2026-05-07 16:45 | -35.62857 | -62.24206 | 7742 ft | 145 kts | 237° |
| 2026-05-07 16:45 | -35.63367 | -62.25266 | 7743 ft | 144 kts | 237° |
| 2026-05-07 16:45 | -35.63873 | -62.26318 | 7747 ft | 144 kts | 237° |
| 2026-05-07 16:46 | -35.64383 | -62.27380 | 7751 ft | 143 kts | 237° |
| 2026-05-07 16:46 | -35.64896 | -62.28445 | 7752 ft | 143 kts | 237° |
| 2026-05-07 16:46 | -35.65404 | -62.29503 | 7753 ft | 144 kts | 237° |
| 2026-05-07 16:46 | -35.65911 | -62.30559 | 7753 ft | 144 kts | 237° |
| 2026-05-07 16:47 | -35.66419 | -62.31615 | 7756 ft | 144 kts | 237° |
| 2026-05-07 16:47 | -35.66929 | -62.32676 | 7758 ft | 144 kts | 237° |
| 2026-05-07 16:47 | -35.67441 | -62.33744 | 7756 ft | 144 kts | 237° |
| 2026-05-07 16:47 | -35.67950 | -62.34804 | 7756 ft | 144 kts | 237° |
| 2026-05-07 16:48 | -35.68453 | -62.35855 | 7756 ft | 144 kts | 237° |
| 2026-05-07 16:48 | -35.68960 | -62.36910 | 7758 ft | 143 kts | 237° |
| 2026-05-07 16:48 | -35.69466 | -62.37965 | 7758 ft | 143 kts | 237° |
| 2026-05-07 16:48 | -35.69976 | -62.39030 | 7759 ft | 143 kts | 237° |
| 2026-05-07 16:49 | -35.70485 | -62.40094 | 7759 ft | 143 kts | 237° |
| 2026-05-07 16:49 | -35.70987 | -62.41141 | 7762 ft | 143 kts | 236° |
| 2026-05-07 16:49 | -35.71493 | -62.42199 | 7766 ft | 143 kts | 236° |
| 2026-05-07 16:49 | -35.71993 | -62.43242 | 7764 ft | 143 kts | 236° |
| 2026-05-07 16:50 | -35.72502 | -62.44305 | 7761 ft | 143 kts | 236° |
| 2026-05-07 16:50 | -35.73004 | -62.45353 | 7761 ft | 143 kts | 237° |
| 2026-05-07 16:50 | -35.73511 | -62.46415 | 7759 ft | 143 kts | 236° |
| 2026-05-07 16:50 | -35.74015 | -62.47468 | 7763 ft | 143 kts | 236° |
| 2026-05-07 16:51 | -35.74528 | -62.48529 | 7755 ft | 143 kts | 237° |
| 2026-05-07 16:51 | -35.75026 | -62.49584 | 7756 ft | 143 kts | 237° |
| 2026-05-07 16:51 | -35.75531 | -62.50643 | 7759 ft | 144 kts | 237° |
| 2026-05-07 16:51 | -35.76037 | -62.51702 | 7757 ft | 143 kts | 237° |
| 2026-05-07 16:52 | -35.76546 | -62.52769 | 7758 ft | 143 kts | 236° |
| 2026-05-07 16:52 | -35.77054 | -62.53831 | 7759 ft | 144 kts | 236° |
| 2026-05-07 16:52 | -35.77558 | -62.54889 | 7758 ft | 143 kts | 236° |
| 2026-05-07 16:52 | -35.78062 | -62.55945 | 7759 ft | 143 kts | 236° |
| 2026-05-07 16:53 | -35.78567 | -62.57005 | 7761 ft | 143 kts | 236° |
| 2026-05-07 16:53 | -35.79065 | -62.58048 | 7763 ft | 143 kts | 236° |
| 2026-05-07 16:53 | -35.79567 | -62.59101 | 7762 ft | 142 kts | 236° |
| 2026-05-07 16:53 | -35.80069 | -62.60155 | 7763 ft | 142 kts | 236° |
| 2026-05-07 16:54 | -35.80568 | -62.61203 | 7765 ft | 142 kts | 236° |
| 2026-05-07 16:54 | -35.81070 | -62.62258 | 7767 ft | 142 kts | 236° |
| 2026-05-07 16:54 | -35.81570 | -62.63307 | 7766 ft | 143 kts | 236° |
| 2026-05-07 16:54 | -35.82072 | -62.64363 | 7767 ft | 143 kts | 236° |
| 2026-05-07 16:55 | -35.82578 | -62.65426 | 7768 ft | 143 kts | 236° |
| 2026-05-07 16:55 | -35.83080 | -62.66482 | 7771 ft | 143 kts | 236° |
| 2026-05-07 16:55 | -35.83586 | -62.67547 | 7769 ft | 143 kts | 236° |
| 2026-05-07 16:55 | -35.84085 | -62.68598 | 7770 ft | 143 kts | 236° |
| 2026-05-07 16:56 | -35.84588 | -62.69658 | 7771 ft | 143 kts | 236° |
| 2026-05-07 16:56 | -35.85090 | -62.70714 | 7774 ft | 143 kts | 236° |
| 2026-05-07 16:56 | -35.86097 | -62.72836 | 7776 ft | 143 kts | 236° |
| 2026-05-07 16:57 | -35.86595 | -62.73886 | 7774 ft | 143 kts | 236° |
| 2026-05-07 16:57 | -35.87103 | -62.74956 | 7770 ft | 143 kts | 236° |
| 2026-05-07 16:57 | -35.87599 | -62.76003 | 7773 ft | 142 kts | 236° |
| 2026-05-07 16:57 | -35.88097 | -62.77055 | 7781 ft | 142 kts | 236° |
| 2026-05-07 16:58 | -35.88599 | -62.78114 | 7780 ft | 142 kts | 236° |
| 2026-05-07 16:58 | -35.89095 | -62.79160 | 7779 ft | 141 kts | 235° |
| 2026-05-07 16:58 | -35.89588 | -62.80202 | 7781 ft | 141 kts | 236° |
| 2026-05-07 16:58 | -35.90084 | -62.81249 | 7781 ft | 141 kts | 235° |
| 2026-05-07 16:59 | -35.90580 | -62.82297 | 7783 ft | 141 kts | 236° |
| 2026-05-07 16:59 | -35.91079 | -62.83351 | 7786 ft | 141 kts | 236° |
| 2026-05-07 16:59 | -35.91570 | -62.84390 | 7783 ft | 142 kts | 235° |
| 2026-05-07 16:59 | -35.92074 | -62.85453 | 7779 ft | 143 kts | 236° |
| 2026-05-07 17:00 | -35.92575 | -62.86513 | 7779 ft | 143 kts | 235° |
| 2026-05-07 17:00 | -35.93074 | -62.87571 | 7778 ft | 143 kts | 236° |
| 2026-05-07 17:00 | -35.93576 | -62.88634 | 7785 ft | 143 kts | 236° |
| 2026-05-07 17:00 | -35.94079 | -62.89698 | 7791 ft | 143 kts | 236° |
| 2026-05-07 17:01 | -35.94579 | -62.90758 | 7789 ft | 143 kts | 236° |
| 2026-05-07 17:01 | -35.95078 | -62.91816 | 7795 ft | 142 kts | 236° |
| 2026-05-07 17:01 | -35.95576 | -62.92871 | 7799 ft | 142 kts | 235° |
| 2026-05-07 17:01 | -35.96067 | -62.93915 | 7797 ft | 142 kts | 236° |
| 2026-05-07 17:02 | -35.96563 | -62.94966 | 7795 ft | 141 kts | 235° |
| 2026-05-07 17:02 | -35.97062 | -62.96024 | 7791 ft | 141 kts | 235° |
| 2026-05-07 17:02 | -35.97559 | -62.97063 | 7789 ft | 141 kts | 234° |
| 2026-05-07 17:02 | -35.98060 | -62.98124 | 7784 ft | 142 kts | 235° |
| 2026-05-07 17:03 | -35.98547 | -62.99182 | 7785 ft | 142 kts | 234° |
| 2026-05-07 17:03 | -35.99041 | -63.00233 | 7784 ft | 141 kts | 235° |
| 2026-05-07 17:03 | -35.99536 | -63.01285 | 7786 ft | 141 kts | 234° |
| 2026-05-07 17:03 | -36.00027 | -63.02327 | 7785 ft | 141 kts | 234° |
| 2026-05-07 17:04 | -36.00525 | -63.03385 | 7785 ft | 141 kts | 234° |
| 2026-05-07 17:04 | -36.01017 | -63.04430 | 7786 ft | 141 kts | 235° |
| 2026-05-07 17:04 | -36.01517 | -63.05490 | 7784 ft | 141 kts | 234° |
| 2026-05-07 17:04 | -36.02012 | -63.06543 | 7783 ft | 142 kts | 235° |
| 2026-05-07 17:05 | -36.02505 | -63.07594 | 7783 ft | 142 kts | 235° |
| 2026-05-07 17:05 | -36.02999 | -63.08646 | 7790 ft | 141 kts | 235° |
| 2026-05-07 17:05 | -36.03495 | -63.09703 | 7787 ft | 141 kts | 235° |
| 2026-05-07 17:05 | -36.03991 | -63.10760 | 7787 ft | 142 kts | 235° |
| 2026-05-07 17:06 | -36.04485 | -63.11811 | 7786 ft | 142 kts | 235° |
| 2026-05-07 17:06 | -36.04977 | -63.12861 | 7786 ft | 141 kts | 234° |
| 2026-05-07 17:06 | -36.05468 | -63.13909 | 7787 ft | 141 kts | 234° |
| 2026-05-07 17:06 | -36.05954 | -63.14947 | 7786 ft | 140 kts | 234° |
| 2026-05-07 17:07 | -36.06446 | -63.15996 | 7795 ft | 140 kts | 234° |
| 2026-05-07 17:07 | -36.06931 | -63.17032 | 7795 ft | 140 kts | 234° |
| 2026-05-07 17:07 | -36.07424 | -63.18086 | 7795 ft | 141 kts | 234° |
| 2026-05-07 17:07 | -36.07920 | -63.19142 | 7786 ft | 141 kts | 234° |
| 2026-05-07 17:08 | -36.08407 | -63.20184 | 7788 ft | 141 kts | 234° |
| 2026-05-07 17:08 | -36.08904 | -63.21245 | 7785 ft | 141 kts | 234° |
| 2026-05-07 17:08 | -36.09391 | -63.22288 | 7789 ft | 141 kts | 234° |
| 2026-05-07 17:08 | -36.09885 | -63.23344 | 7785 ft | 141 kts | 234° |
| 2026-05-07 17:09 | -36.10376 | -63.24394 | 7790 ft | 141 kts | 235° |
| 2026-05-07 17:09 | -36.10865 | -63.25441 | 7794 ft | 141 kts | 235° |
| 2026-05-07 17:09 | -36.11357 | -63.26495 | 7794 ft | 141 kts | 234° |
| 2026-05-07 17:09 | -36.11852 | -63.27554 | 7792 ft | 142 kts | 235° |
| 2026-05-07 17:10 | -36.12342 | -63.28606 | 7792 ft | 141 kts | 235° |
| 2026-05-07 17:10 | -36.12832 | -63.29657 | 7793 ft | 141 kts | 234° |
| 2026-05-07 17:10 | -36.13323 | -63.30709 | 7797 ft | 141 kts | 234° |
| 2026-05-07 17:10 | -36.13812 | -63.31758 | 7798 ft | 141 kts | 234° |
| 2026-05-07 17:11 | -36.14305 | -63.32816 | 7800 ft | 141 kts | 234° |
| 2026-05-07 17:11 | -36.14795 | -63.33866 | 7798 ft | 141 kts | 234° |
| 2026-05-07 17:11 | -36.15284 | -63.34916 | 7802 ft | 141 kts | 234° |
| 2026-05-07 17:11 | -36.15776 | -63.35973 | 7800 ft | 141 kts | 234° |
| 2026-05-07 17:12 | -36.16264 | -63.37021 | 7803 ft | 141 kts | 234° |
| 2026-05-07 17:12 | -36.16752 | -63.38069 | 7798 ft | 141 kts | 234° |
| 2026-05-07 17:12 | -36.17246 | -63.39132 | 7803 ft | 141 kts | 234° |
| 2026-05-07 17:12 | -36.17733 | -63.40179 | 7807 ft | 141 kts | 234° |
| 2026-05-07 17:13 | -36.18220 | -63.41225 | 7810 ft | 141 kts | 234° |
| 2026-05-07 17:13 | -36.18714 | -63.42289 | 7807 ft | 141 kts | 234° |
| 2026-05-07 17:13 | -36.19204 | -63.43341 | 7806 ft | 141 kts | 234° |
| 2026-05-07 17:13 | -36.19692 | -63.44393 | 7802 ft | 141 kts | 234° |
| 2026-05-07 17:14 | -36.20179 | -63.45443 | 7803 ft | 140 kts | 234° |
| 2026-05-07 17:14 | -36.20660 | -63.46479 | 7812 ft | 140 kts | 234° |
| 2026-05-07 17:14 | -36.21149 | -63.47531 | 7817 ft | 140 kts | 234° |
| 2026-05-07 17:14 | -36.21637 | -63.48581 | 7817 ft | 141 kts | 234° |
| 2026-05-07 17:15 | -36.22121 | -63.49625 | 7817 ft | 141 kts | 234° |
| 2026-05-07 17:15 | -36.22614 | -63.50687 | 7816 ft | 141 kts | 234° |
| 2026-05-07 17:15 | -36.23108 | -63.51753 | 7807 ft | 142 kts | 234° |
| 2026-05-07 17:15 | -36.23593 | -63.52801 | 7800 ft | 142 kts | 234° |
| 2026-05-07 17:16 | -36.24086 | -63.53866 | 7804 ft | 141 kts | 234° |
| 2026-05-07 17:16 | -36.24571 | -63.54913 | 7803 ft | 141 kts | 234° |
| 2026-05-07 17:16 | -36.25058 | -63.55967 | 7801 ft | 140 kts | 234° |
| 2026-05-07 17:16 | -36.25540 | -63.57008 | 7806 ft | 139 kts | 234° |
| 2026-05-07 17:17 | -36.26024 | -63.58054 | 7815 ft | 139 kts | 234° |
| 2026-05-07 17:17 | -36.26502 | -63.59087 | 7818 ft | 139 kts | 234° |
| 2026-05-07 17:17 | -36.26982 | -63.60124 | 7812 ft | 140 kts | 234° |
| 2026-05-07 17:17 | -36.27469 | -63.61176 | 7814 ft | 140 kts | 234° |
| 2026-05-07 17:18 | -36.27953 | -63.62222 | 7808 ft | 140 kts | 234° |
| 2026-05-07 17:18 | -36.28441 | -63.63279 | 7803 ft | 140 kts | 234° |
| 2026-05-07 17:18 | -36.28923 | -63.64323 | 7803 ft | 140 kts | 234° |
| 2026-05-07 17:18 | -36.29409 | -63.65376 | 7802 ft | 140 kts | 235° |
| 2026-05-07 17:19 | -36.29897 | -63.66433 | 7805 ft | 140 kts | 235° |
| 2026-05-07 17:19 | -36.30378 | -63.67476 | 7803 ft | 140 kts | 234° |
| 2026-05-07 17:19 | -36.30863 | -63.68529 | 7802 ft | 140 kts | 235° |
| 2026-05-07 17:19 | -36.31345 | -63.69576 | 7810 ft | 140 kts | 235° |
| 2026-05-07 17:20 | -36.31833 | -63.70630 | 7813 ft | 140 kts | 234° |
| 2026-05-07 17:20 | -36.32315 | -63.71678 | 7810 ft | 140 kts | 234° |
| 2026-05-07 17:20 | -36.32798 | -63.72727 | 7808 ft | 140 kts | 234° |
| 2026-05-07 17:20 | -36.33281 | -63.73777 | 7806 ft | 140 kts | 234° |
| 2026-05-07 17:21 | -36.33598 | -63.74943 | 7806 ft | 149 kts | 256° |
| 2026-05-07 17:21 | -36.33634 | -63.76229 | 7810 ft | 149 kts | 257° |
| 2026-05-07 17:21 | -36.33651 | -63.77520 | 7811 ft | 151 kts | 260° |
| 2026-05-07 17:21 | -36.33633 | -63.78818 | 7811 ft | 151 kts | 260° |
| 2026-05-07 17:22 | -36.33609 | -63.80128 | 7810 ft | 151 kts | 260° |
| 2026-05-07 17:22 | -36.33586 | -63.81420 | 7801 ft | 152 kts | 260° |
| 2026-05-07 17:22 | -36.33566 | -63.82766 | 7615 ft | 157 kts | 261° |
| 2026-05-07 17:22 | -36.33543 | -63.84105 | 7414 ft | 155 kts | 261° |
| 2026-05-07 17:23 | -36.33524 | -63.85438 | 7213 ft | 153 kts | 260° |
| 2026-05-07 17:23 | -36.33511 | -63.86755 | 7017 ft | 152 kts | 260° |
| 2026-05-07 17:23 | -36.33501 | -63.88057 | 6819 ft | 151 kts | 260° |
| 2026-05-07 17:23 | -36.33492 | -63.89364 | 6619 ft | 151 kts | 260° |
| 2026-05-07 17:24 | -36.33479 | -63.90655 | 6414 ft | 148 kts | 260° |
| 2026-05-07 17:24 | -36.33467 | -63.91912 | 6210 ft | 144 kts | 259° |
| 2026-05-07 17:24 | -36.33458 | -63.93145 | 6008 ft | 142 kts | 259° |
| 2026-05-07 17:24 | -36.33457 | -63.94361 | 5803 ft | 140 kts | 259° |
| 2026-05-07 17:25 | -36.33452 | -63.95554 | 5606 ft | 138 kts | 258° |
| 2026-05-07 17:25 | -36.33448 | -63.96732 | 5404 ft | 136 kts | 259° |
| 2026-05-07 17:25 | -36.33443 | -63.97902 | 5197 ft | 136 kts | 258° |
| 2026-05-07 17:25 | -36.33435 | -63.99078 | 4995 ft | 135 kts | 259° |
| 2026-05-07 17:26 | -36.33425 | -64.00240 | 4766 ft | 134 kts | 259° |
| 2026-05-07 17:26 | -36.33410 | -64.01368 | 4514 ft | 130 kts | 258° |
| 2026-05-07 17:26 | -36.33403 | -64.02486 | 4261 ft | 128 kts | 258° |
| 2026-05-07 17:26 | -36.33393 | -64.03585 | 4006 ft | 127 kts | 257° |
| 2026-05-07 17:27 | -36.33385 | -64.04673 | 3752 ft | 126 kts | 258° |
| 2026-05-07 17:27 | -36.33377 | -64.05752 | 3501 ft | 126 kts | 257° |
| 2026-05-07 17:27 | -36.33368 | -64.06830 | 3247 ft | 125 kts | 258° |
| 2026-05-07 17:27 | -36.33360 | -64.07915 | 3005 ft | 125 kts | 258° |
| 2026-05-07 17:28 | -36.33347 | -64.08968 | 2807 ft | 122 kts | 258° |
| 2026-05-07 17:28 | -36.33341 | -64.10023 | 2601 ft | 121 kts | 256° |
| 2026-05-07 17:28 | -36.33329 | -64.11050 | 2403 ft | 118 kts | 256° |
| 2026-05-07 17:28 | -36.33320 | -64.12048 | 2215 ft | 113 kts | 257° |
| 2026-05-07 17:29 | -36.33311 | -64.13005 | 2188 ft | 108 kts | 257° |
| 2026-05-07 17:29 | -36.33301 | -64.13933 | 2193 ft | 106 kts | 257° |
| 2026-05-07 17:29 | -36.33297 | -64.14846 | 2184 ft | 106 kts | 258° |
| 2026-05-07 17:29 | -36.33291 | -64.15754 | 2191 ft | 106 kts | 256° |
| 2026-05-07 17:30 | -36.33284 | -64.16676 | 2209 ft | 104 kts | 255° |
| 2026-05-07 17:30 | -36.33278 | -64.17591 | 2209 ft | 106 kts | 258° |
| 2026-05-07 17:30 | -36.33265 | -64.18514 | 2197 ft | 107 kts | 257° |
| 2026-05-07 17:30 | -36.33255 | -64.19430 | 2201 ft | 105 kts | 258° |
| 2026-05-07 17:31 | -36.33249 | -64.20327 | 2206 ft | 104 kts | 256° |
| 2026-05-07 17:31 | -36.33492 | -64.21085 | 2200 ft | 89 kts | 217° |
| 2026-05-07 17:31 | -36.34020 | -64.21461 | 2194 ft | 90 kts | 202° |
| 2026-05-07 17:31 | -36.34636 | -64.21660 | 2200 ft | 90 kts | 196° |
| 2026-05-07 17:32 | -36.35262 | -64.21808 | 2193 ft | 92 kts | 194° |
| 2026-05-07 17:32 | -36.35888 | -64.21950 | 2188 ft | 92 kts | 196° |
| 2026-05-07 17:32 | -36.36515 | -64.22092 | 2173 ft | 90 kts | 193° |
| 2026-05-07 17:32 | -36.37133 | -64.22234 | 2184 ft | 88 kts | 193° |
| 2026-05-07 17:33 | -36.37745 | -64.22377 | 2175 ft | 90 kts | 198° |
| 2026-05-07 17:33 | -36.38356 | -64.22526 | 2185 ft | 89 kts | 192° |
| 2026-05-07 17:33 | -36.38975 | -64.22669 | 2170 ft | 89 kts | 195° |
| 2026-05-07 17:33 | -36.39578 | -64.22829 | 2190 ft | 88 kts | 194° |
| 2026-05-07 17:34 | -36.40189 | -64.22976 | 2188 ft | 89 kts | 194° |
| 2026-05-07 17:34 | -36.40798 | -64.23131 | 2185 ft | 89 kts | 193° |
| 2026-05-07 17:34 | -36.41398 | -64.23271 | 2176 ft | 87 kts | 195° |
| 2026-05-07 17:34 | -36.42003 | -64.23425 | 2185 ft | 89 kts | 198° |
| 2026-05-07 17:35 | -36.42620 | -64.23581 | 2188 ft | 89 kts | 194° |
| 2026-05-07 17:35 | -36.43232 | -64.23728 | 2186 ft | 89 kts | 194° |
| 2026-05-07 17:35 | -36.43845 | -64.23872 | 2177 ft | 90 kts | 193° |
| 2026-05-07 17:35 | -36.44463 | -64.24030 | 2188 ft | 89 kts | 198° |
| 2026-05-07 17:36 | -36.45074 | -64.24183 | 2182 ft | 89 kts | 197° |
| 2026-05-07 17:36 | -36.45689 | -64.24331 | 2178 ft | 90 kts | 194° |
| 2026-05-07 17:36 | -36.46300 | -64.24480 | 2172 ft | 90 kts | 195° |
| 2026-05-07 17:36 | -36.46916 | -64.24635 | 2192 ft | 89 kts | 199° |
| 2026-05-07 17:37 | -36.47531 | -64.24783 | 2179 ft | 90 kts | 194° |
| 2026-05-07 17:37 | -36.48143 | -64.24930 | 2165 ft | 89 kts | 195° |
| 2026-05-07 17:37 | -36.48745 | -64.25079 | 2181 ft | 88 kts | 195° |
| 2026-05-07 17:37 | -36.49361 | -64.25238 | 2120 ft | 93 kts | 199° |
| 2026-05-07 17:38 | -36.50012 | -64.25407 | 1991 ft | 96 kts | 199° |
| 2026-05-07 17:38 | -36.50675 | -64.25572 | 1869 ft | 98 kts | 193° |
| 2026-05-07 17:38 | -36.51348 | -64.25730 | 1739 ft | 96 kts | 198° |
| 2026-05-07 17:38 | -36.51975 | -64.25885 | 1599 ft | 87 kts | 191° |
| 2026-05-07 17:39 | -36.52524 | -64.26019 | 1459 ft | 73 kts | 198° |
| 2026-05-07 17:39 | -36.52967 | -64.26114 | 1335 ft | 58 kts | 201° |
| 2026-05-07 17:39 | -36.53375 | -64.26210 | 1196 ft | 61 kts | 192° |
| 2026-05-07 17:39 | -36.53811 | -64.26309 | 1265 ft | 67 kts | 195° |
| 2026-05-07 17:40 | -36.54272 | -64.26430 | 1244 ft | 64 kts | 193° |
| 2026-05-07 17:40 | -36.54682 | -64.26538 | 1230 ft | 54 kts | 190° |
| 2026-05-07 17:40 | -36.55056 | -64.26630 | 1212 ft | 59 kts | 191° |
| 2026-05-07 17:40 | -36.55489 | -64.26743 | 1157 ft | 73 kts | 198° |
| 2026-05-07 17:41 | -36.55980 | -64.26889 | 1091 ft | 73 kts | 197° |
| 2026-05-07 17:41 | -36.56472 | -64.26980 | 962 ft | 67 kts | 202° |
| 2026-05-07 17:41 | -36.56916 | -64.27085 | 852 ft | 61 kts | 194° |
| 2026-05-07 17:41 | -36.57330 | -64.27192 | 752 ft | 63 kts | 197° |
| 2026-05-07 17:42 | -36.57762 | -64.27293 | 669 ft | 62 kts | 192° |
| 2026-05-07 17:42 | -36.58183 | -64.27384 | 630 ft | 57 kts | 205° |
| 2026-05-07 17:42 | -36.58519 | -64.27484 | 623 ft | 40 kts | 194° |
| 2026-05-07 17:42 | -36.58751 | -64.27541 | 622 ft | 29 kts | 195° |
| 2026-05-07 17:43 | -36.58924 | -64.27594 | 623 ft | 18 kts | 191° |
| 2026-05-07 17:43 | -36.59045 | -64.27628 | 622 ft | 17 kts | 202° |
| 2026-05-07 17:43 | -36.59124 | -64.27662 | 622 ft | 5 kts | 221° |
| 2026-05-07 17:43 | -36.59147 | -64.27718 | 623 ft | 10 kts | 249° |
| 2026-05-07 17:44 | -36.59175 | -64.27801 | 625 ft | 9 kts | 239° |
| 2026-05-07 17:44 | -36.59194 | -64.27841 | 625 ft | 4 kts | 223° |
| 2026-05-07 17:44 | -36.59213 | -64.27885 | 625 ft | 5 kts | 262° |
| 2026-05-07 17:44 | -36.59213 | -64.27895 | 625 ft | 0 kts | 264° |